sensor_id;sensor_type;location;lat;lon;timestamp;pressure;altitude;pressure_sealevel;temperature;humidity
5812;BME280;2932;52.400;9.558;2023-04-20T00:00:34;101534.63;;;12.19;60.49
5812;BME280;2932;52.400;9.558;2023-04-20T00:03:00;101521.19;;;12.29;61.06
5812;BME280;2932;52.400;9.558;2023-04-20T00:05:25;101509.06;;;12.55;59.80
5812;BME280;2932;52.400;9.558;2023-04-20T00:07:51;101500.00;;;12.66;60.15
5812;BME280;2932;52.400;9.558;2023-04-20T00:10:18;101504.34;;;12.55;60.21
5812;BME280;2932;52.400;9.558;2023-04-20T00:12:43;101491.75;;;12.58;59.76
5812;BME280;2932;52.400;9.558;2023-04-20T00:15:09;101496.03;;;12.76;60.28
5812;BME280;2932;52.400;9.558;2023-04-20T00:17:36;101490.94;;;12.78;60.01
5812;BME280;2932;52.400;9.558;2023-04-20T00:20:02;101488.72;;;12.72;59.63
5812;BME280;2932;52.400;9.558;2023-04-20T00:22:29;101485.59;;;12.73;59.82
5812;BME280;2932;52.400;9.558;2023-04-20T00:24:54;101493.00;;;12.81;59.87
5812;BME280;2932;52.400;9.558;2023-04-20T00:27:20;101492.56;;;12.79;59.89
5812;BME280;2932;52.400;9.558;2023-04-20T00:29:45;101486.28;;;12.70;60.03
5812;BME280;2932;52.400;9.558;2023-04-20T00:32:11;101489.03;;;12.49;59.77
5812;BME280;2932;52.400;9.558;2023-04-20T00:34:36;101475.50;;;12.68;59.55
5812;BME280;2932;52.400;9.558;2023-04-20T00:37:01;101473.13;;;12.58;59.44
5812;BME280;2932;52.400;9.558;2023-04-20T00:39:27;101472.84;;;12.51;59.42
5812;BME280;2932;52.400;9.558;2023-04-20T00:41:52;101467.97;;;12.48;59.17
5812;BME280;2932;52.400;9.558;2023-04-20T00:44:17;101466.69;;;12.46;59.62
5812;BME280;2932;52.400;9.558;2023-04-20T00:46:43;101473.38;;;12.45;59.32
5812;BME280;2932;52.400;9.558;2023-04-20T00:49:08;101474.38;;;12.19;59.56
5812;BME280;2932;52.400;9.558;2023-04-20T00:51:33;101467.63;;;12.29;59.91
5812;BME280;2932;52.400;9.558;2023-04-20T00:54:00;101466.75;;;12.58;59.31
5812;BME280;2932;52.400;9.558;2023-04-20T00:56:25;101465.69;;;12.71;59.12
5812;BME280;2932;52.400;9.558;2023-04-20T00:58:51;101472.66;;;12.77;58.77
5812;BME280;2932;52.400;9.558;2023-04-20T01:01:16;101462.28;;;12.65;58.69
5812;BME280;2932;52.400;9.558;2023-04-20T01:03:43;101458.44;;;12.58;58.98
5812;BME280;2932;52.400;9.558;2023-04-20T01:06:08;101464.06;;;12.70;59.04
5812;BME280;2932;52.400;9.558;2023-04-20T01:08:34;101458.63;;;12.74;59.29
5812;BME280;2932;52.400;9.558;2023-04-20T01:10:59;101452.00;;;12.66;58.45
5812;BME280;2932;52.400;9.558;2023-04-20T01:13:24;101451.34;;;12.81;58.95
5812;BME280;2932;52.400;9.558;2023-04-20T01:15:50;101447.19;;;12.75;58.97
5812;BME280;2932;52.400;9.558;2023-04-20T01:18:16;101434.06;;;12.63;59.58
5812;BME280;2932;52.400;9.558;2023-04-20T01:20:44;101427.00;;;12.66;59.21
5812;BME280;2932;52.400;9.558;2023-04-20T01:23:11;101434.47;;;12.74;59.33
5812;BME280;2932;52.400;9.558;2023-04-20T01:25:36;101431.28;;;12.63;59.65
5812;BME280;2932;52.400;9.558;2023-04-20T01:28:01;101434.13;;;12.76;58.92
5812;BME280;2932;52.400;9.558;2023-04-20T01:30:27;101433.84;;;12.68;58.77
5812;BME280;2932;52.400;9.558;2023-04-20T01:32:53;101427.66;;;12.30;59.31
5812;BME280;2932;52.400;9.558;2023-04-20T01:35:19;101422.00;;;11.97;60.31
5812;BME280;2932;52.400;9.558;2023-04-20T01:37:44;101418.28;;;12.14;60.54
5812;BME280;2932;52.400;9.558;2023-04-20T01:40:12;101412.44;;;12.36;60.25
5812;BME280;2932;52.400;9.558;2023-04-20T01:42:38;101416.00;;;12.16;59.89
5812;BME280;2932;52.400;9.558;2023-04-20T01:45:05;101414.25;;;11.82;61.20
5812;BME280;2932;52.400;9.558;2023-04-20T01:47:30;101416.94;;;11.99;60.64
5812;BME280;2932;52.400;9.558;2023-04-20T01:49:56;101404.94;;;11.86;61.16
5812;BME280;2932;52.400;9.558;2023-04-20T01:52:21;101401.88;;;11.70;61.47
5812;BME280;2932;52.400;9.558;2023-04-20T01:54:46;101407.63;;;11.65;61.73
5812;BME280;2932;52.400;9.558;2023-04-20T01:57:12;101399.72;;;11.55;62.03
5812;BME280;2932;52.400;9.558;2023-04-20T01:59:37;101401.44;;;11.30;62.40
5812;BME280;2932;52.400;9.558;2023-04-20T02:02:02;101385.06;;;11.46;62.48
5812;BME280;2932;52.400;9.558;2023-04-20T02:04:28;101397.53;;;11.61;62.35
5812;BME280;2932;52.400;9.558;2023-04-20T02:06:53;101399.44;;;11.78;61.82
5812;BME280;2932;52.400;9.558;2023-04-20T02:09:18;101391.88;;;11.87;61.58
5812;BME280;2932;52.400;9.558;2023-04-20T02:11:43;101397.81;;;11.77;61.98
5812;BME280;2932;52.400;9.558;2023-04-20T02:14:09;101388.38;;;11.69;62.45
5812;BME280;2932;52.400;9.558;2023-04-20T02:16:34;101392.34;;;11.59;61.89
5812;BME280;2932;52.400;9.558;2023-04-20T02:19:00;101405.69;;;11.28;62.84
5812;BME280;2932;52.400;9.558;2023-04-20T02:21:27;101392.34;;;11.59;62.81
5812;BME280;2932;52.400;9.558;2023-04-20T02:23:52;101390.72;;;11.58;63.09
5812;BME280;2932;52.400;9.558;2023-04-20T02:26:17;101387.47;;;11.56;62.54
5812;BME280;2932;52.400;9.558;2023-04-20T02:28:43;101389.50;;;11.77;62.16
5812;BME280;2932;52.400;9.558;2023-04-20T02:31:08;101383.91;;;11.85;62.13
5812;BME280;2932;52.400;9.558;2023-04-20T02:33:34;101373.34;;;11.79;62.35
5812;BME280;2932;52.400;9.558;2023-04-20T02:35:59;101387.75;;;11.63;62.50
5812;BME280;2932;52.400;9.558;2023-04-20T02:38:25;101385.25;;;11.79;62.55
5812;BME280;2932;52.400;9.558;2023-04-20T02:40:50;101378.56;;;12.01;62.14
5812;BME280;2932;52.400;9.558;2023-04-20T02:43:15;101385.72;;;11.81;62.51
5812;BME280;2932;52.400;9.558;2023-04-20T02:45:41;101390.41;;;11.89;62.05
5812;BME280;2932;52.400;9.558;2023-04-20T02:48:06;101390.31;;;11.77;61.98
5812;BME280;2932;52.400;9.558;2023-04-20T02:50:31;101385.59;;;11.69;62.63
5812;BME280;2932;52.400;9.558;2023-04-20T02:52:57;101390.00;;;11.70;62.66
5812;BME280;2932;52.400;9.558;2023-04-20T02:55:22;101380.19;;;11.73;62.85
5812;BME280;2932;52.400;9.558;2023-04-20T02:57:47;101379.50;;;11.55;62.80
5812;BME280;2932;52.400;9.558;2023-04-20T03:00:13;101374.00;;;11.46;63.35
5812;BME280;2932;52.400;9.558;2023-04-20T03:02:38;101368.97;;;11.69;63.09
5812;BME280;2932;52.400;9.558;2023-04-20T03:05:04;101369.09;;;11.73;62.84
5812;BME280;2932;52.400;9.558;2023-04-20T03:07:30;101364.53;;;11.77;62.81
5812;BME280;2932;52.400;9.558;2023-04-20T03:09:55;101366.25;;;11.90;62.55
5812;BME280;2932;52.400;9.558;2023-04-20T03:12:21;101362.63;;;11.98;62.67
5812;BME280;2932;52.400;9.558;2023-04-20T03:14:46;101369.78;;;11.99;62.42
5812;BME280;2932;52.400;9.558;2023-04-20T03:17:12;101367.00;;;11.78;62.19
5812;BME280;2932;52.400;9.558;2023-04-20T03:19:37;101363.78;;;11.97;62.29
5812;BME280;2932;52.400;9.558;2023-04-20T03:22:02;101359.84;;;11.98;62.29
5812;BME280;2932;52.400;9.558;2023-04-20T03:24:28;101365.41;;;11.98;62.11
5812;BME280;2932;52.400;9.558;2023-04-20T03:26:54;101368.44;;;11.76;62.67
5812;BME280;2932;52.400;9.558;2023-04-20T03:29:19;101368.94;;;11.78;62.52
5812;BME280;2932;52.400;9.558;2023-04-20T03:31:45;101371.63;;;11.95;62.45
5812;BME280;2932;52.400;9.558;2023-04-20T03:34:10;101371.88;;;12.02;62.32
5812;BME280;2932;52.400;9.558;2023-04-20T03:36:36;101374.88;;;11.97;62.20
5812;BME280;2932;52.400;9.558;2023-04-20T03:39:01;101376.81;;;11.96;62.24
5812;BME280;2932;52.400;9.558;2023-04-20T03:41:27;101375.94;;;11.84;62.71
5812;BME280;2932;52.400;9.558;2023-04-20T03:43:52;101373.50;;;12.03;62.60
5812;BME280;2932;52.400;9.558;2023-04-20T03:46:17;101368.34;;;12.14;62.23
5812;BME280;2932;52.400;9.558;2023-04-20T03:48:43;101365.53;;;12.22;61.86
5812;BME280;2932;52.400;9.558;2023-04-20T03:51:08;101371.88;;;12.02;62.02
5812;BME280;2932;52.400;9.558;2023-04-20T03:53:34;101377.00;;;12.12;62.10
5812;BME280;2932;52.400;9.558;2023-04-20T03:55:59;101372.44;;;11.95;62.07
5812;BME280;2932;52.400;9.558;2023-04-20T03:58:24;101374.97;;;12.00;62.04
5812;BME280;2932;52.400;9.558;2023-04-20T04:00:50;101379.50;;;11.84;62.14
5812;BME280;2932;52.400;9.558;2023-04-20T04:03:15;101371.19;;;12.05;62.43
5812;BME280;2932;52.400;9.558;2023-04-20T04:05:41;101375.00;;;12.21;62.14
5812;BME280;2932;52.400;9.558;2023-04-20T04:08:06;101369.25;;;12.26;61.95
5812;BME280;2932;52.400;9.558;2023-04-20T04:10:32;101367.34;;;12.39;61.81
5812;BME280;2932;52.400;9.558;2023-04-20T04:12:57;101364.19;;;12.41;61.30
5812;BME280;2932;52.400;9.558;2023-04-20T04:15:23;101365.06;;;12.53;61.30
5812;BME280;2932;52.400;9.558;2023-04-20T04:17:48;101367.91;;;12.45;61.42
5812;BME280;2932;52.400;9.558;2023-04-20T04:20:14;101376.44;;;12.40;61.66
5812;BME280;2932;52.400;9.558;2023-04-20T04:22:40;101375.94;;;12.25;61.80
5812;BME280;2932;52.400;9.558;2023-04-20T04:25:05;101377.84;;;12.33;61.94
5812;BME280;2932;52.400;9.558;2023-04-20T04:27:31;101383.25;;;12.30;61.82
5812;BME280;2932;52.400;9.558;2023-04-20T04:29:59;101385.47;;;12.16;62.13
5812;BME280;2932;52.400;9.558;2023-04-20T04:32:25;101386.06;;;12.42;62.00
5812;BME280;2932;52.400;9.558;2023-04-20T04:34:51;101383.38;;;12.13;61.92
5812;BME280;2932;52.400;9.558;2023-04-20T04:37:17;101379.59;;;12.38;61.93
5812;BME280;2932;52.400;9.558;2023-04-20T04:39:43;101382.38;;;12.38;61.91
5812;BME280;2932;52.400;9.558;2023-04-20T04:42:08;101371.81;;;12.31;61.85
5812;BME280;2932;52.400;9.558;2023-04-20T04:44:33;101366.16;;;12.40;62.15
5812;BME280;2932;52.400;9.558;2023-04-20T04:47:01;101382.44;;;12.29;62.07
5812;BME280;2932;52.400;9.558;2023-04-20T04:49:26;101384.06;;;12.30;62.35
5812;BME280;2932;52.400;9.558;2023-04-20T04:51:53;101374.72;;;12.35;62.13
5812;BME280;2932;52.400;9.558;2023-04-20T04:54:18;101373.16;;;12.25;62.01
5812;BME280;2932;52.400;9.558;2023-04-20T04:56:44;101374.31;;;12.24;62.46
5812;BME280;2932;52.400;9.558;2023-04-20T04:59:09;101376.00;;;12.38;62.42
5812;BME280;2932;52.400;9.558;2023-04-20T05:01:35;101383.38;;;12.33;62.64
5812;BME280;2932;52.400;9.558;2023-04-20T05:04:00;101386.50;;;12.32;62.36
5812;BME280;2932;52.400;9.558;2023-04-20T05:06:25;101374.31;;;12.03;62.80
5812;BME280;2932;52.400;9.558;2023-04-20T05:08:51;101373.50;;;12.03;62.93
5812;BME280;2932;52.400;9.558;2023-04-20T05:11:16;101383.91;;;11.85;62.80
5812;BME280;2932;52.400;9.558;2023-04-20T05:13:42;101377.06;;;11.83;63.70
5812;BME280;2932;52.400;9.558;2023-04-20T05:16:07;101381.88;;;12.15;63.49
5812;BME280;2932;52.400;9.558;2023-04-20T05:18:32;101379.59;;;12.17;63.03
5812;BME280;2932;52.400;9.558;2023-04-20T05:20:58;101390.56;;;12.14;63.37
5812;BME280;2932;52.400;9.558;2023-04-20T05:23:24;101392.97;;;12.15;63.30
5812;BME280;2932;52.400;9.558;2023-04-20T05:25:49;101400.63;;;12.18;63.28
5812;BME280;2932;52.400;9.558;2023-04-20T05:28:14;101392.84;;;12.12;63.39
5812;BME280;2932;52.400;9.558;2023-04-20T05:30:40;101400.97;;;12.17;63.37
5812;BME280;2932;52.400;9.558;2023-04-20T05:33:05;101395.28;;;12.13;63.38
5812;BME280;2932;52.400;9.558;2023-04-20T05:35:30;101399.50;;;12.19;63.19
5812;BME280;2932;52.400;9.558;2023-04-20T05:37:56;101393.31;;;11.93;63.46
5812;BME280;2932;52.400;9.558;2023-04-20T05:40:24;101387.16;;;12.08;63.72
5812;BME280;2932;52.400;9.558;2023-04-20T05:42:50;101397.91;;;12.10;63.39
5812;BME280;2932;52.400;9.558;2023-04-20T05:45:15;101395.16;;;12.30;63.32
5812;BME280;2932;52.400;9.558;2023-04-20T05:47:41;101396.69;;;12.40;63.08
5812;BME280;2932;52.400;9.558;2023-04-20T05:50:07;101411.66;;;12.48;62.76
5812;BME280;2932;52.400;9.558;2023-04-20T05:52:32;101400.56;;;12.48;62.79
5812;BME280;2932;52.400;9.558;2023-04-20T05:54:58;101410.84;;;12.47;62.79
5812;BME280;2932;52.400;9.558;2023-04-20T05:57:24;101408.16;;;12.39;62.55
5812;BME280;2932;52.400;9.558;2023-04-20T05:59:49;101413.81;;;12.42;63.24
5812;BME280;2932;52.400;9.558;2023-04-20T06:02:14;101406.25;;;12.51;63.08
5812;BME280;2932;52.400;9.558;2023-04-20T06:04:40;101403.81;;;12.29;63.07
5812;BME280;2932;52.400;9.558;2023-04-20T06:07:06;101406.78;;;12.45;62.87
5812;BME280;2932;52.400;9.558;2023-04-20T06:09:34;101416.59;;;12.63;63.06
5812;BME280;2932;52.400;9.558;2023-04-20T06:11:59;101400.19;;;12.37;62.71
5812;BME280;2932;52.400;9.558;2023-04-20T06:14:26;101401.38;;;12.48;63.03
5812;BME280;2932;52.400;9.558;2023-04-20T06:16:51;101401.28;;;12.57;63.21
5812;BME280;2932;52.400;9.558;2023-04-20T06:19:17;101410.22;;;12.62;62.58
5812;BME280;2932;52.400;9.558;2023-04-20T06:21:42;101398.38;;;12.53;62.75
5812;BME280;2932;52.400;9.558;2023-04-20T06:24:07;101399.53;;;12.52;62.80
5812;BME280;2932;52.400;9.558;2023-04-20T06:26:33;101404.13;;;12.48;62.90
5812;BME280;2932;52.400;9.558;2023-04-20T06:28:58;101397.06;;;12.39;62.68
5812;BME280;2932;52.400;9.558;2023-04-20T06:31:23;101401.50;;;12.52;62.96
5812;BME280;2932;52.400;9.558;2023-04-20T06:33:49;101405.75;;;12.49;62.25
5812;BME280;2932;52.400;9.558;2023-04-20T06:36:14;101395.09;;;12.39;62.75
5812;BME280;2932;52.400;9.558;2023-04-20T06:38:40;101386.66;;;12.48;62.58
5812;BME280;2932;52.400;9.558;2023-04-20T06:41:05;101394.16;;;12.68;62.46
5812;BME280;2932;52.400;9.558;2023-04-20T06:43:30;101387.06;;;12.91;62.14
5812;BME280;2932;52.400;9.558;2023-04-20T06:45:56;101381.84;;;12.78;61.67
5812;BME280;2932;52.400;9.558;2023-04-20T06:48:21;101387.78;;;13.00;61.17
5812;BME280;2932;52.400;9.558;2023-04-20T06:50:48;101393.13;;;13.06;61.33
5812;BME280;2932;52.400;9.558;2023-04-20T06:53:14;101393.63;;;13.20;61.09
5812;BME280;2932;52.400;9.558;2023-04-20T06:55:39;101398.00;;;13.09;61.02
5812;BME280;2932;52.400;9.558;2023-04-20T06:58:04;101395.81;;;13.14;61.19
5812;BME280;2932;52.400;9.558;2023-04-20T07:00:30;101399.16;;;13.08;60.99
5812;BME280;2932;52.400;9.558;2023-04-20T07:02:55;101392.16;;;12.89;61.05
5812;BME280;2932;52.400;9.558;2023-04-20T07:05:21;101409.69;;;12.81;61.23
5812;BME280;2932;52.400;9.558;2023-04-20T07:07:47;101396.63;;;12.82;61.45
5812;BME280;2932;52.400;9.558;2023-04-20T07:10:13;101400.56;;;12.81;61.54
5812;BME280;2932;52.400;9.558;2023-04-20T07:12:39;101406.97;;;12.60;61.78
5812;BME280;2932;52.400;9.558;2023-04-20T07:15:06;101398.44;;;12.65;61.73
5812;BME280;2932;52.400;9.558;2023-04-20T07:17:31;101410.16;;;12.50;61.98
5812;BME280;2932;52.400;9.558;2023-04-20T07:19:57;101415.16;;;12.57;62.16
5812;BME280;2932;52.400;9.558;2023-04-20T07:22:29;101407.16;;;12.76;62.04
5812;BME280;2932;52.400;9.558;2023-04-20T07:24:55;101402.31;;;12.85;61.53
5812;BME280;2932;52.400;9.558;2023-04-20T07:27:21;101395.25;;;12.88;60.96
5812;BME280;2932;52.400;9.558;2023-04-20T07:29:46;101407.00;;;13.06;61.08
5812;BME280;2932;52.400;9.558;2023-04-20T07:32:11;101404.16;;;13.14;60.37
5812;BME280;2932;52.400;9.558;2023-04-20T07:34:37;101401.06;;;13.16;59.78
5812;BME280;2932;52.400;9.558;2023-04-20T07:37:02;101410.56;;;12.94;60.12
5812;BME280;2932;52.400;9.558;2023-04-20T07:39:28;101413.47;;;12.97;60.20
5812;BME280;2932;52.400;9.558;2023-04-20T07:41:54;101413.34;;;12.61;60.49
5812;BME280;2932;52.400;9.558;2023-04-20T07:44:21;101422.41;;;12.49;61.04
5812;BME280;2932;52.400;9.558;2023-04-20T07:46:46;101424.50;;;12.73;60.67
5812;BME280;2932;52.400;9.558;2023-04-20T07:49:13;101418.97;;;12.85;60.52
5812;BME280;2932;52.400;9.558;2023-04-20T07:51:38;101419.75;;;12.74;60.24
5812;BME280;2932;52.400;9.558;2023-04-20T07:54:04;101418.00;;;12.69;60.63
5812;BME280;2932;52.400;9.558;2023-04-20T07:56:29;101412.19;;;12.95;60.37
5812;BME280;2932;52.400;9.558;2023-04-20T07:58:56;101414.41;;;13.01;60.33
5812;BME280;2932;52.400;9.558;2023-04-20T08:01:24;101415.41;;;13.30;60.02
5812;BME280;2932;52.400;9.558;2023-04-20T08:03:51;101416.50;;;13.50;59.37
5812;BME280;2932;52.400;9.558;2023-04-20T08:06:16;101425.41;;;13.43;58.86
5812;BME280;2932;52.400;9.558;2023-04-20T08:08:41;101418.13;;;13.51;59.21
5812;BME280;2932;52.400;9.558;2023-04-20T08:11:07;101418.94;;;13.51;58.71
5812;BME280;2932;52.400;9.558;2023-04-20T08:13:33;101421.91;;;13.34;58.48
5812;BME280;2932;52.400;9.558;2023-04-20T08:15:58;101423.53;;;13.35;58.56
5812;BME280;2932;52.400;9.558;2023-04-20T08:18:24;101417.16;;;13.34;58.55
5812;BME280;2932;52.400;9.558;2023-04-20T08:20:49;101425.41;;;13.55;58.34
5812;BME280;2932;52.400;9.558;2023-04-20T08:23:15;101429.34;;;13.42;58.08
5812;BME280;2932;52.400;9.558;2023-04-20T08:25:40;101426.09;;;13.40;57.82
5812;BME280;2932;52.400;9.558;2023-04-20T08:28:06;101418.88;;;13.27;57.81
5812;BME280;2932;52.400;9.558;2023-04-20T08:30:32;101429.34;;;13.42;58.09
5812;BME280;2932;52.400;9.558;2023-04-20T08:32:57;101426.34;;;13.59;57.99
5812;BME280;2932;52.400;9.558;2023-04-20T08:35:23;101419.03;;;13.91;57.54
5812;BME280;2932;52.400;9.558;2023-04-20T08:37:48;101418.81;;;13.72;57.18
5812;BME280;2932;52.400;9.558;2023-04-20T08:40:16;101419.56;;;14.09;56.58
5812;BME280;2932;52.400;9.558;2023-04-20T08:42:41;101419.78;;;14.28;55.53
5812;BME280;2932;52.400;9.558;2023-04-20T08:45:07;101423.94;;;14.75;54.55
5812;BME280;2932;52.400;9.558;2023-04-20T08:47:33;101415.75;;;14.66;53.37
5812;BME280;2932;52.400;9.558;2023-04-20T08:49:59;101414.50;;;14.51;52.59
5812;BME280;2932;52.400;9.558;2023-04-20T08:52:25;101416.19;;;14.68;52.81
5812;BME280;2932;52.400;9.558;2023-04-20T08:54:50;101416.59;;;14.54;52.51
5812;BME280;2932;52.400;9.558;2023-04-20T08:57:15;101422.09;;;14.26;55.91
5812;BME280;2932;52.400;9.558;2023-04-20T08:59:40;101414.66;;;14.43;56.00
5812;BME280;2932;52.400;9.558;2023-04-20T09:02:10;101423.69;;;14.40;56.26
5812;BME280;2932;52.400;9.558;2023-04-20T09:04:36;101415.69;;;14.38;56.34
5812;BME280;2932;52.400;9.558;2023-04-20T09:07:01;101412.53;;;14.40;55.93
5812;BME280;2932;52.400;9.558;2023-04-20T09:09:27;101412.25;;;14.29;56.40
5812;BME280;2932;52.400;9.558;2023-04-20T09:12:06;101414.16;;;14.41;56.02
5812;BME280;2932;52.400;9.558;2023-04-20T09:14:43;101421.00;;;14.55;55.60
5812;BME280;2932;52.400;9.558;2023-04-20T09:17:08;101428.53;;;14.83;54.92
5812;BME280;2932;52.400;9.558;2023-04-20T09:19:38;101426.16;;;14.97;54.85
5812;BME280;2932;52.400;9.558;2023-04-20T09:22:04;101417.09;;;15.00;53.86
5812;BME280;2932;52.400;9.558;2023-04-20T09:24:35;101416.84;;;15.37;53.69
5812;BME280;2932;52.400;9.558;2023-04-20T09:27:21;101428.81;;;15.37;52.71
5812;BME280;2932;52.400;9.558;2023-04-20T09:30:00;101424.03;;;15.22;52.63
5812;BME280;2932;52.400;9.558;2023-04-20T09:32:27;101426.34;;;15.20;52.14
5812;BME280;2932;52.400;9.558;2023-04-20T09:34:53;101429.34;;;14.83;50.88
5812;BME280;2932;52.400;9.558;2023-04-20T09:37:19;101428.09;;;14.81;51.16
5812;BME280;2932;52.400;9.558;2023-04-20T09:39:45;101422.72;;;14.88;51.25
5812;BME280;2932;52.400;9.558;2023-04-20T09:42:12;101428.81;;;14.78;51.67
5812;BME280;2932;52.400;9.558;2023-04-20T09:44:38;101436.81;;;14.79;51.94
5812;BME280;2932;52.400;9.558;2023-04-20T09:47:04;101434.03;;;14.79;52.06
5812;BME280;2932;52.400;9.558;2023-04-20T09:49:31;101421.22;;;14.62;51.47
5812;BME280;2932;52.400;9.558;2023-04-20T09:51:56;101422.94;;;14.67;51.66
5812;BME280;2932;52.400;9.558;2023-04-20T09:54:22;101430.13;;;14.68;51.13
5812;BME280;2932;52.400;9.558;2023-04-20T09:56:48;101429.41;;;14.71;50.88
5812;BME280;2932;52.400;9.558;2023-04-20T09:59:16;101431.25;;;14.79;51.65
5812;BME280;2932;52.400;9.558;2023-04-20T10:01:43;101432.78;;;14.92;51.70
5812;BME280;2932;52.400;9.558;2023-04-20T10:04:08;101431.63;;;14.93;51.47
5812;BME280;2932;52.400;9.558;2023-04-20T10:06:35;101434.72;;;15.04;51.36
5812;BME280;2932;52.400;9.558;2023-04-20T10:09:02;101426.06;;;14.93;51.23
5812;BME280;2932;52.400;9.558;2023-04-20T10:11:30;101429.66;;;14.94;50.93
5812;BME280;2932;52.400;9.558;2023-04-20T10:13:57;101426.81;;;15.06;50.91
5812;BME280;2932;52.400;9.558;2023-04-20T10:16:24;101428.72;;;15.18;50.75
5812;BME280;2932;52.400;9.558;2023-04-20T10:19:00;101442.81;;;15.25;50.17
5812;BME280;2932;52.400;9.558;2023-04-20T10:21:29;101431.78;;;15.28;50.07
5812;BME280;2932;52.400;9.558;2023-04-20T10:23:57;101429.00;;;15.44;49.70
5812;BME280;2932;52.400;9.558;2023-04-20T10:26:35;101437.34;;;15.28;49.20
5812;BME280;2932;52.400;9.558;2023-04-20T10:29:01;101429.28;;;14.95;49.71
5812;BME280;2932;52.400;9.558;2023-04-20T10:31:37;101433.38;;;15.14;49.85
5812;BME280;2932;52.400;9.558;2023-04-20T10:34:03;101424.94;;;15.10;49.75
5812;BME280;2932;52.400;9.558;2023-04-20T10:36:30;101429.56;;;14.90;50.08
5812;BME280;2932;52.400;9.558;2023-04-20T10:38:57;101419.38;;;14.82;50.63
5812;BME280;2932;52.400;9.558;2023-04-20T10:41:23;101428.06;;;15.09;49.54
5812;BME280;2932;52.400;9.558;2023-04-20T10:43:49;101427.63;;;15.07;49.04
5812;BME280;2932;52.400;9.558;2023-04-20T10:46:18;101426.91;;;15.25;48.35
5812;BME280;2932;52.400;9.558;2023-04-20T10:51:18;101423.31;;;15.09;48.54
5812;BME280;2932;52.400;9.558;2023-04-20T10:53:43;101420.63;;;15.13;48.63
5812;BME280;2932;52.400;9.558;2023-04-20T10:56:09;101403.38;;;15.39;48.49
5812;BME280;2932;52.400;9.558;2023-04-20T10:58:35;101410.69;;;15.59;48.35
5812;BME280;2932;52.400;9.558;2023-04-20T11:01:03;101406.88;;;15.83;47.92
5812;BME280;2932;52.400;9.558;2023-04-20T11:03:30;101402.72;;;15.77;47.34
5812;BME280;2932;52.400;9.558;2023-04-20T11:05:57;101410.03;;;16.16;47.33
5812;BME280;2932;52.400;9.558;2023-04-20T11:08:35;101401.31;;;16.56;46.40
5812;BME280;2932;52.400;9.558;2023-04-20T11:11:01;101416.75;;;16.31;46.80
5812;BME280;2932;52.400;9.558;2023-04-20T11:13:27;101412.97;;;16.23;46.92
5812;BME280;2932;52.400;9.558;2023-04-20T11:15:53;101415.13;;;16.49;46.84
5812;BME280;2932;52.400;9.558;2023-04-20T11:18:19;101411.38;;;16.42;46.45
5812;BME280;2932;52.400;9.558;2023-04-20T11:20:52;101404.84;;;16.53;46.61
5812;BME280;2932;52.400;9.558;2023-04-20T11:23:19;101404.41;;;16.32;46.51
5812;BME280;2932;52.400;9.558;2023-04-20T11:25:55;101403.22;;;16.33;46.88
5812;BME280;2932;52.400;9.558;2023-04-20T11:28:21;101400.34;;;16.49;46.74
5812;BME280;2932;52.400;9.558;2023-04-20T11:30:46;101392.69;;;16.46;46.61
5812;BME280;2932;52.400;9.558;2023-04-20T11:33:14;101387.09;;;17.04;46.04
5812;BME280;2932;52.400;9.558;2023-04-20T11:35:40;101378.81;;;16.88;45.67
5812;BME280;2932;52.400;9.558;2023-04-20T11:38:06;101383.38;;;16.57;46.26
5812;BME280;2932;52.400;9.558;2023-04-20T11:40:32;101375.50;;;16.82;46.01
5812;BME280;2932;52.400;9.558;2023-04-20T11:42:57;101384.97;;;16.97;45.92
5812;BME280;2932;52.400;9.558;2023-04-20T11:45:24;101371.25;;;17.11;45.16
5812;BME280;2932;52.400;9.558;2023-04-20T11:47:49;101386.03;;;17.12;45.20
5812;BME280;2932;52.400;9.558;2023-04-20T11:50:15;101369.38;;;17.42;44.85
5812;BME280;2932;52.400;9.558;2023-04-20T11:52:41;101362.59;;;17.65;44.36
5812;BME280;2932;52.400;9.558;2023-04-20T11:55:06;101357.16;;;17.76;43.76
5812;BME280;2932;52.400;9.558;2023-04-20T11:57:32;101341.94;;;18.04;43.61
5812;BME280;2932;52.400;9.558;2023-04-20T11:59:58;101357.75;;;18.19;43.42
5812;BME280;2932;52.400;9.558;2023-04-20T12:02:23;101349.44;;;18.26;43.43
5812;BME280;2932;52.400;9.558;2023-04-20T12:04:49;101347.22;;;18.72;42.66
5812;BME280;2932;52.400;9.558;2023-04-20T12:07:14;101340.81;;;18.72;42.49
5812;BME280;2932;52.400;9.558;2023-04-20T12:09:40;101337.69;;;19.24;41.33
5812;BME280;2932;52.400;9.558;2023-04-20T12:12:06;101330.09;;;19.25;41.53
5812;BME280;2932;52.400;9.558;2023-04-20T12:14:32;101343.28;;;19.21;41.80
5812;BME280;2932;52.400;9.558;2023-04-20T12:16:59;101344.34;;;18.65;42.41
5812;BME280;2932;52.400;9.558;2023-04-20T12:19:25;101341.31;;;18.84;42.65
5812;BME280;2932;52.400;9.558;2023-04-20T12:21:50;101330.19;;;19.36;42.44
5812;BME280;2932;52.400;9.558;2023-04-20T12:24:15;101336.38;;;19.55;41.88
5812;BME280;2932;52.400;9.558;2023-04-20T12:26:41;101331.94;;;19.51;41.92
5812;BME280;2932;52.400;9.558;2023-04-20T12:29:06;101325.44;;;20.09;41.60
5812;BME280;2932;52.400;9.558;2023-04-20T12:31:31;101320.69;;;20.16;40.82
5812;BME280;2932;52.400;9.558;2023-04-20T12:33:57;101332.53;;;19.81;40.93
5812;BME280;2932;52.400;9.558;2023-04-20T12:36:22;101320.34;;;20.32;41.54
5812;BME280;2932;52.400;9.558;2023-04-20T12:38:50;101323.25;;;20.53;40.30
5812;BME280;2932;52.400;9.558;2023-04-20T12:41:16;101314.47;;;20.83;40.21
5812;BME280;2932;52.400;9.558;2023-04-20T12:43:41;101305.22;;;20.72;39.74
5812;BME280;2932;52.400;9.558;2023-04-20T12:46:07;101306.34;;;20.46;40.04
5812;BME280;2932;52.400;9.558;2023-04-20T12:48:32;101297.94;;;20.50;39.95
5812;BME280;2932;52.400;9.558;2023-04-20T12:50:57;101289.94;;;20.62;39.94
5812;BME280;2932;52.400;9.558;2023-04-20T12:53:23;101293.84;;;20.29;40.03
5812;BME280;2932;52.400;9.558;2023-04-20T12:55:48;101297.78;;;20.14;39.72
5812;BME280;2932;52.400;9.558;2023-04-20T12:58:13;101297.56;;;20.62;40.11
5812;BME280;2932;52.400;9.558;2023-04-20T13:00:40;101292.81;;;21.02;39.39
5812;BME280;2932;52.400;9.558;2023-04-20T13:03:06;101286.72;;;20.57;39.21
5812;BME280;2932;52.400;9.558;2023-04-20T13:05:32;101285.88;;;20.49;38.69